sensor_id;sensor_type;location;lat;lon;timestamp;P1;durP1;ratioP1;P2;durP2;ratioP2
40122;SDS011;25832;45.490;4.912;2022-12-13T00:01:49;78.57;;;33.30;;
40122;SDS011;25832;45.490;4.912;2022-12-13T00:04:16;73.75;;;30.85;;
40122;SDS011;25832;45.490;4.912;2022-12-13T00:06:42;79.53;;;33.28;;
40122;SDS011;25832;45.490;4.912;2022-12-13T00:09:09;69.70;;;31.27;;
40122;SDS011;25832;45.490;4.912;2022-12-13T00:11:37;70.93;;;32.20;;
40122;SDS011;25832;45.490;4.912;2022-12-13T00:14:03;83.60;;;31.92;;
40122;SDS011;25832;45.490;4.912;2022-12-13T00:16:28;75.65;;;32.60;;
40122;SDS011;25832;45.490;4.912;2022-12-13T00:18:56;72.55;;;31.15;;
40122;SDS011;25832;45.490;4.912;2022-12-13T00:21:24;78.38;;;31.90;;
40122;SDS011;25832;45.490;4.912;2022-12-13T00:23:54;76.38;;;33.72;;
40122;SDS011;25832;45.490;4.912;2022-12-13T00:26:22;73.75;;;31.70;;
40122;SDS011;25832;45.490;4.912;2022-12-13T00:28:50;75.05;;;32.97;;
40122;SDS011;25832;45.490;4.912;2022-12-13T00:31:18;71.32;;;28.77;;
40122;SDS011;25832;45.490;4.912;2022-12-13T00:33:45;84.05;;;33.72;;
40122;SDS011;25832;45.490;4.912;2022-12-13T00:36:11;80.88;;;33.78;;
40122;SDS011;25832;45.490;4.912;2022-12-13T00:38:36;77.63;;;32.53;;
40122;SDS011;25832;45.490;4.912;2022-12-13T00:41:09;77.68;;;33.13;;
40122;SDS011;25832;45.490;4.912;2022-12-13T00:43:39;74.82;;;31.00;;
40122;SDS011;25832;45.490;4.912;2022-12-13T00:46:12;78.43;;;31.73;;
40122;SDS011;25832;45.490;4.912;2022-12-13T00:48:39;84.90;;;33.22;;
40122;SDS011;25832;45.490;4.912;2022-12-13T00:51:06;85.15;;;32.03;;
40122;SDS011;25832;45.490;4.912;2022-12-13T00:53:33;75.25;;;35.00;;
40122;SDS011;25832;45.490;4.912;2022-12-13T00:55:59;67.45;;;33.00;;
40122;SDS011;25832;45.490;4.912;2022-12-13T00:58:25;86.68;;;36.28;;
40122;SDS011;25832;45.490;4.912;2022-12-13T01:00:51;88.55;;;35.70;;
40122;SDS011;25832;45.490;4.912;2022-12-13T01:03:17;79.07;;;34.38;;
40122;SDS011;25832;45.490;4.912;2022-12-13T01:05:49;77.82;;;34.08;;
40122;SDS011;25832;45.490;4.912;2022-12-13T01:08:15;89.88;;;35.28;;
40122;SDS011;25832;45.490;4.912;2022-12-13T01:10:44;83.60;;;33.75;;
40122;SDS011;25832;45.490;4.912;2022-12-13T01:13:10;83.82;;;35.55;;
40122;SDS011;25832;45.490;4.912;2022-12-13T01:15:40;86.13;;;34.80;;
40122;SDS011;25832;45.490;4.912;2022-12-13T01:20:32;74.05;;;30.60;;
40122;SDS011;25832;45.490;4.912;2022-12-13T01:22:58;80.72;;;33.75;;
40122;SDS011;25832;45.490;4.912;2022-12-13T01:25:24;82.20;;;32.30;;
40122;SDS011;25832;45.490;4.912;2022-12-13T01:27:49;61.53;;;27.98;;
40122;SDS011;25832;45.490;4.912;2022-12-13T01:30:15;81.13;;;32.35;;
40122;SDS011;25832;45.490;4.912;2022-12-13T01:32:41;78.07;;;32.25;;
40122;SDS011;25832;45.490;4.912;2022-12-13T01:35:06;73.00;;;31.98;;
40122;SDS011;25832;45.490;4.912;2022-12-13T01:37:32;76.22;;;31.50;;
40122;SDS011;25832;45.490;4.912;2022-12-13T01:40:00;77.75;;;31.88;;
40122;SDS011;25832;45.490;4.912;2022-12-13T01:42:27;78.88;;;33.45;;
40122;SDS011;25832;45.490;4.912;2022-12-13T01:45:01;84.30;;;35.08;;
40122;SDS011;25832;45.490;4.912;2022-12-13T01:50:12;83.03;;;35.10;;
40122;SDS011;25832;45.490;4.912;2022-12-13T01:52:42;88.40;;;34.83;;
40122;SDS011;25832;45.490;4.912;2022-12-13T01:55:09;80.13;;;33.28;;
40122;SDS011;25832;45.490;4.912;2022-12-13T01:57:39;60.28;;;25.27;;
40122;SDS011;25832;45.490;4.912;2022-12-13T02:00:08;73.60;;;32.42;;
40122;SDS011;25832;45.490;4.912;2022-12-13T02:02:36;76.70;;;32.63;;
40122;SDS011;25832;45.490;4.912;2022-12-13T02:07:33;76.20;;;33.65;;
40122;SDS011;25832;45.490;4.912;2022-12-13T02:10:01;73.53;;;31.70;;
40122;SDS011;25832;45.490;4.912;2022-12-13T02:12:29;73.00;;;31.90;;
40122;SDS011;25832;45.490;4.912;2022-12-13T02:14:58;65.90;;;31.50;;
40122;SDS011;25832;45.490;4.912;2022-12-13T02:25:35;83.10;;;34.75;;
40122;SDS011;25832;45.490;4.912;2022-12-13T02:28:31;56.97;;;24.90;;
40122;SDS011;25832;45.490;4.912;2022-12-13T02:31:05;73.78;;;31.45;;
40122;SDS011;25832;45.490;4.912;2022-12-13T02:33:48;79.30;;;34.88;;
40122;SDS011;25832;45.490;4.912;2022-12-13T02:39:02;111.45;;;51.80;;
40122;SDS011;25832;45.490;4.912;2022-12-13T02:44:18;83.53;;;38.28;;
40122;SDS011;25832;45.490;4.912;2022-12-13T02:46:56;81.53;;;33.08;;
40122;SDS011;25832;45.490;4.912;2022-12-13T02:49:26;82.30;;;32.88;;
40122;SDS011;25832;45.490;4.912;2022-12-13T02:51:56;73.65;;;32.97;;
40122;SDS011;25832;45.490;4.912;2022-12-13T02:54:24;85.93;;;34.22;;
40122;SDS011;25832;45.490;4.912;2022-12-13T02:56:56;86.63;;;36.95;;
40122;SDS011;25832;45.490;4.912;2022-12-13T02:59:24;92.07;;;38.78;;
40122;SDS011;25832;45.490;4.912;2022-12-13T03:04:39;80.82;;;31.42;;
40122;SDS011;25832;45.490;4.912;2022-12-13T03:07:45;77.25;;;33.70;;
40122;SDS011;25832;45.490;4.912;2022-12-13T03:10:24;77.00;;;33.92;;
40122;SDS011;25832;45.490;4.912;2022-12-13T03:13:00;81.93;;;32.83;;
40122;SDS011;25832;45.490;4.912;2022-12-13T03:15:59;70.30;;;31.30;;
40122;SDS011;25832;45.490;4.912;2022-12-13T03:18:29;75.97;;;33.65;;
40122;SDS011;25832;45.490;4.912;2022-12-13T03:21:01;82.32;;;33.05;;
40122;SDS011;25832;45.490;4.912;2022-12-13T03:23:29;79.53;;;33.38;;
40122;SDS011;25832;45.490;4.912;2022-12-13T03:25:56;73.75;;;34.05;;
40122;SDS011;25832;45.490;4.912;2022-12-13T03:28:24;79.72;;;34.25;;
40122;SDS011;25832;45.490;4.912;2022-12-13T03:30:50;74.10;;;31.80;;
40122;SDS011;25832;45.490;4.912;2022-12-13T03:33:16;72.63;;;30.52;;
40122;SDS011;25832;45.490;4.912;2022-12-13T03:35:41;79.95;;;34.15;;
40122;SDS011;25832;45.490;4.912;2022-12-13T03:38:08;70.35;;;31.98;;
40122;SDS011;25832;45.490;4.912;2022-12-13T03:40:34;87.95;;;37.20;;
40122;SDS011;25832;45.490;4.912;2022-12-13T03:43:00;83.68;;;36.65;;
40122;SDS011;25832;45.490;4.912;2022-12-13T03:45:26;86.43;;;38.75;;
40122;SDS011;25832;45.490;4.912;2022-12-13T03:47:52;83.57;;;33.50;;
40122;SDS011;25832;45.490;4.912;2022-12-13T03:50:18;84.78;;;36.58;;
40122;SDS011;25832;45.490;4.912;2022-12-13T03:52:43;84.68;;;35.05;;
40122;SDS011;25832;45.490;4.912;2022-12-13T03:55:11;91.97;;;35.05;;
40122;SDS011;25832;45.490;4.912;2022-12-13T03:57:37;89.72;;;34.75;;
40122;SDS011;25832;45.490;4.912;2022-12-13T04:00:03;85.43;;;39.83;;
40122;SDS011;25832;45.490;4.912;2022-12-13T04:02:29;90.38;;;36.38;;
40122;SDS011;25832;45.490;4.912;2022-12-13T04:04:55;95.35;;;38.15;;
40122;SDS011;25832;45.490;4.912;2022-12-13T04:07:21;84.10;;;36.00;;
40122;SDS011;25832;45.490;4.912;2022-12-13T04:09:47;77.28;;;33.45;;
40122;SDS011;25832;45.490;4.912;2022-12-13T04:12:12;80.18;;;32.83;;
40122;SDS011;25832;45.490;4.912;2022-12-13T04:14:56;81.45;;;33.78;;
40122;SDS011;25832;45.490;4.912;2022-12-13T04:17:22;76.97;;;33.13;;
40122;SDS011;25832;45.490;4.912;2022-12-13T04:19:48;75.03;;;31.88;;
40122;SDS011;25832;45.490;4.912;2022-12-13T04:22:13;79.15;;;33.97;;
40122;SDS011;25832;45.490;4.912;2022-12-13T04:24:39;79.28;;;33.63;;
40122;SDS011;25832;45.490;4.912;2022-12-13T04:27:05;81.53;;;33.53;;
40122;SDS011;25832;45.490;4.912;2022-12-13T04:29:30;78.47;;;34.55;;
40122;SDS011;25832;45.490;4.912;2022-12-13T04:31:57;84.38;;;34.92;;
40122;SDS011;25832;45.490;4.912;2022-12-13T04:34:22;84.20;;;32.75;;
40122;SDS011;25832;45.490;4.912;2022-12-13T04:36:48;83.90;;;33.63;;
40122;SDS011;25832;45.490;4.912;2022-12-13T04:39:14;76.88;;;32.47;;
40122;SDS011;25832;45.490;4.912;2022-12-13T04:41:39;86.60;;;32.75;;
40122;SDS011;25832;45.490;4.912;2022-12-13T04:44:06;79.60;;;32.80;;
40122;SDS011;25832;45.490;4.912;2022-12-13T04:46:33;76.10;;;33.70;;
40122;SDS011;25832;45.490;4.912;2022-12-13T04:48:59;73.25;;;31.42;;
40122;SDS011;25832;45.490;4.912;2022-12-13T04:51:25;68.78;;;28.27;;
40122;SDS011;25832;45.490;4.912;2022-12-13T04:53:51;76.10;;;31.58;;
40122;SDS011;25832;45.490;4.912;2022-12-13T04:56:16;63.60;;;28.02;;
40122;SDS011;25832;45.490;4.912;2022-12-13T04:58:42;65.00;;;28.38;;
40122;SDS011;25832;45.490;4.912;2022-12-13T05:01:09;59.53;;;26.58;;
40122;SDS011;25832;45.490;4.912;2022-12-13T05:03:37;61.97;;;27.90;;
40122;SDS011;25832;45.490;4.912;2022-12-13T05:06:04;58.42;;;27.60;;
40122;SDS011;25832;45.490;4.912;2022-12-13T05:08:31;57.80;;;26.80;;
40122;SDS011;25832;45.490;4.912;2022-12-13T05:10:57;58.78;;;27.05;;
40122;SDS011;25832;45.490;4.912;2022-12-13T05:13:23;65.65;;;27.10;;
40122;SDS011;25832;45.490;4.912;2022-12-13T05:15:59;64.15;;;27.67;;
40122;SDS011;25832;45.490;4.912;2022-12-13T05:18:27;68.32;;;26.77;;
40122;SDS011;25832;45.490;4.912;2022-12-13T05:20:53;63.15;;;28.40;;
40122;SDS011;25832;45.490;4.912;2022-12-13T05:23:19;60.13;;;28.20;;
40122;SDS011;25832;45.490;4.912;2022-12-13T05:25:46;63.55;;;27.50;;
40122;SDS011;25832;45.490;4.912;2022-12-13T05:28:12;55.70;;;25.75;;
40122;SDS011;25832;45.490;4.912;2022-12-13T05:30:41;61.13;;;26.85;;
40122;SDS011;25832;45.490;4.912;2022-12-13T05:33:07;70.13;;;30.87;;
40122;SDS011;25832;45.490;4.912;2022-12-13T05:35:33;63.88;;;30.08;;
40122;SDS011;25832;45.490;4.912;2022-12-13T05:37:59;68.82;;;29.50;;
40122;SDS011;25832;45.490;4.912;2022-12-13T05:40:25;63.13;;;28.88;;
40122;SDS011;25832;45.490;4.912;2022-12-13T05:42:53;64.15;;;29.27;;
40122;SDS011;25832;45.490;4.912;2022-12-13T05:45:19;65.00;;;27.40;;
40122;SDS011;25832;45.490;4.912;2022-12-13T05:47:45;63.20;;;28.77;;
40122;SDS011;25832;45.490;4.912;2022-12-13T05:50:12;65.95;;;28.98;;
40122;SDS011;25832;45.490;4.912;2022-12-13T05:52:38;64.25;;;27.92;;
40122;SDS011;25832;45.490;4.912;2022-12-13T05:55:04;64.55;;;29.02;;
40122;SDS011;25832;45.490;4.912;2022-12-13T05:57:30;57.60;;;28.13;;
40122;SDS011;25832;45.490;4.912;2022-12-13T05:59:56;55.17;;;27.70;;
40122;SDS011;25832;45.490;4.912;2022-12-13T06:02:22;61.50;;;26.58;;
40122;SDS011;25832;45.490;4.912;2022-12-13T06:04:48;62.53;;;27.60;;
40122;SDS011;25832;45.490;4.912;2022-12-13T06:07:13;65.03;;;29.98;;
40122;SDS011;25832;45.490;4.912;2022-12-13T06:09:39;61.28;;;27.40;;
40122;SDS011;25832;45.490;4.912;2022-12-13T06:12:05;58.75;;;26.48;;
40122;SDS011;25832;45.490;4.912;2022-12-13T06:14:31;55.05;;;25.38;;
40122;SDS011;25832;45.490;4.912;2022-12-13T06:16:57;53.17;;;26.42;;
40122;SDS011;25832;45.490;4.912;2022-12-13T06:19:23;62.45;;;26.55;;
40122;SDS011;25832;45.490;4.912;2022-12-13T06:21:49;59.38;;;27.35;;
40122;SDS011;25832;45.490;4.912;2022-12-13T06:24:17;59.22;;;26.52;;
40122;SDS011;25832;45.490;4.912;2022-12-13T06:26:45;64.00;;;25.90;;
40122;SDS011;25832;45.490;4.912;2022-12-13T06:29:12;60.13;;;26.65;;
40122;SDS011;25832;45.490;4.912;2022-12-13T06:31:38;61.88;;;27.10;;
40122;SDS011;25832;45.490;4.912;2022-12-13T06:34:04;53.17;;;25.25;;
40122;SDS011;25832;45.490;4.912;2022-12-13T06:36:30;52.70;;;26.30;;
40122;SDS011;25832;45.490;4.912;2022-12-13T06:38:56;64.35;;;29.40;;
40122;SDS011;25832;45.490;4.912;2022-12-13T06:41:26;55.90;;;25.92;;
40122;SDS011;25832;45.490;4.912;2022-12-13T06:43:53;62.17;;;27.10;;
40122;SDS011;25832;45.490;4.912;2022-12-13T06:46:19;54.55;;;26.60;;
40122;SDS011;25832;45.490;4.912;2022-12-13T06:48:44;55.75;;;25.45;;
40122;SDS011;25832;45.490;4.912;2022-12-13T06:51:10;55.75;;;25.70;;
40122;SDS011;25832;45.490;4.912;2022-12-13T06:53:36;56.85;;;24.55;;
40122;SDS011;25832;45.490;4.912;2022-12-13T06:56:04;54.58;;;25.58;;
40122;SDS011;25832;45.490;4.912;2022-12-13T06:58:32;55.10;;;24.73;;
40122;SDS011;25832;45.490;4.912;2022-12-13T07:01:12;48.58;;;22.92;;
40122;SDS011;25832;45.490;4.912;2022-12-13T07:03:42;53.47;;;25.30;;
40122;SDS011;25832;45.490;4.912;2022-12-13T07:06:16;55.10;;;23.90;;
40122;SDS011;25832;45.490;4.912;2022-12-13T07:08:43;55.95;;;25.35;;
40122;SDS011;25832;45.490;4.912;2022-12-13T07:11:14;56.30;;;24.50;;
40122;SDS011;25832;45.490;4.912;2022-12-13T07:13:41;57.97;;;26.33;;
40122;SDS011;25832;45.490;4.912;2022-12-13T07:16:07;57.13;;;24.50;;
40122;SDS011;25832;45.490;4.912;2022-12-13T07:18:34;60.17;;;25.73;;
40122;SDS011;25832;45.490;4.912;2022-12-13T07:20:59;54.58;;;24.40;;
40122;SDS011;25832;45.490;4.912;2022-12-13T07:23:28;49.88;;;23.00;;
40122;SDS011;25832;45.490;4.912;2022-12-13T07:25:54;57.17;;;25.92;;
40122;SDS011;25832;45.490;4.912;2022-12-13T07:28:19;48.88;;;23.73;;
40122;SDS011;25832;45.490;4.912;2022-12-13T07:30:46;50.08;;;24.25;;
40122;SDS011;25832;45.490;4.912;2022-12-13T07:33:12;54.83;;;24.20;;
40122;SDS011;25832;45.490;4.912;2022-12-13T07:35:38;58.33;;;22.73;;
40122;SDS011;25832;45.490;4.912;2022-12-13T07:38:08;52.22;;;22.80;;
40122;SDS011;25832;45.490;4.912;2022-12-13T07:40:36;54.17;;;22.85;;
40122;SDS011;25832;45.490;4.912;2022-12-13T07:43:03;46.63;;;23.23;;
40122;SDS011;25832;45.490;4.912;2022-12-13T07:45:28;51.17;;;21.73;;
40122;SDS011;25832;45.490;4.912;2022-12-13T07:47:54;57.03;;;24.83;;
40122;SDS011;25832;45.490;4.912;2022-12-13T07:50:20;45.97;;;23.58;;
40122;SDS011;25832;45.490;4.912;2022-12-13T07:52:47;55.00;;;24.90;;
40122;SDS011;25832;45.490;4.912;2022-12-13T07:55:13;52.65;;;23.83;;
40122;SDS011;25832;45.490;4.912;2022-12-13T07:57:39;54.28;;;25.65;;
40122;SDS011;25832;45.490;4.912;2022-12-13T08:00:05;50.55;;;23.40;;
40122;SDS011;25832;45.490;4.912;2022-12-13T08:02:31;51.97;;;24.27;;
40122;SDS011;25832;45.490;4.912;2022-12-13T08:04:57;54.95;;;25.73;;
40122;SDS011;25832;45.490;4.912;2022-12-13T08:07:23;51.42;;;23.42;;
40122;SDS011;25832;45.490;4.912;2022-12-13T08:09:48;52.60;;;24.40;;
40122;SDS011;25832;45.490;4.912;2022-12-13T08:12:14;52.88;;;22.38;;
40122;SDS011;25832;45.490;4.912;2022-12-13T08:14:40;55.65;;;23.73;;
40122;SDS011;25832;45.490;4.912;2022-12-13T08:17:05;51.63;;;24.05;;
40122;SDS011;25832;45.490;4.912;2022-12-13T08:19:31;53.03;;;25.73;;
40122;SDS011;25832;45.490;4.912;2022-12-13T08:21:57;51.53;;;23.30;;
40122;SDS011;25832;45.490;4.912;2022-12-13T08:24:23;49.63;;;22.77;;
40122;SDS011;25832;45.490;4.912;2022-12-13T08:26:50;54.95;;;24.00;;
40122;SDS011;25832;45.490;4.912;2022-12-13T08:29:16;48.88;;;22.13;;
40122;SDS011;25832;45.490;4.912;2022-12-13T08:31:42;47.80;;;22.77;;
40122;SDS011;25832;45.490;4.912;2022-12-13T08:34:08;49.13;;;23.33;;
40122;SDS011;25832;45.490;4.912;2022-12-13T08:36:33;50.50;;;25.83;;
40122;SDS011;25832;45.490;4.912;2022-12-13T08:38:59;47.00;;;21.45;;
40122;SDS011;25832;45.490;4.912;2022-12-13T08:41:27;44.75;;;20.67;;
40122;SDS011;25832;45.490;4.912;2022-12-13T08:43:53;45.33;;;22.00;;
40122;SDS011;25832;45.490;4.912;2022-12-13T08:46:19;47.05;;;22.40;;
40122;SDS011;25832;45.490;4.912;2022-12-13T08:48:45;36.63;;;19.33;;
40122;SDS011;25832;45.490;4.912;2022-12-13T08:51:12;40.53;;;19.73;;
40122;SDS011;25832;45.490;4.912;2022-12-13T08:53:41;50.90;;;21.88;;
40122;SDS011;25832;45.490;4.912;2022-12-13T08:56:10;39.10;;;21.08;;
40122;SDS011;25832;45.490;4.912;2022-12-13T08:58:36;41.80;;;20.35;;
40122;SDS011;25832;45.490;4.912;2022-12-13T09:01:06;37.15;;;19.05;;
40122;SDS011;25832;45.490;4.912;2022-12-13T09:03:33;42.42;;;19.52;;
40122;SDS011;25832;45.490;4.912;2022-12-13T09:06:07;54.47;;;23.55;;
40122;SDS011;25832;45.490;4.912;2022-12-13T09:08:34;41.92;;;20.67;;
40122;SDS011;25832;45.490;4.912;2022-12-13T09:11:01;39.67;;;21.52;;
40122;SDS011;25832;45.490;4.912;2022-12-13T09:13:28;43.28;;;21.38;;
40122;SDS011;25832;45.490;4.912;2022-12-13T09:15:55;40.08;;;18.95;;
40122;SDS011;25832;45.490;4.912;2022-12-13T09:18:20;46.55;;;21.35;;
40122;SDS011;25832;45.490;4.912;2022-12-13T09:20:46;50.97;;;24.05;;
40122;SDS011;25832;45.490;4.912;2022-12-13T09:23:12;53.03;;;22.75;;
40122;SDS011;25832;45.490;4.912;2022-12-13T09:25:37;47.17;;;23.02;;
40122;SDS011;25832;45.490;4.912;2022-12-13T09:28:06;37.70;;;19.55;;
40122;SDS011;25832;45.490;4.912;2022-12-13T09:30:34;36.83;;;19.75;;
40122;SDS011;25832;45.490;4.912;2022-12-13T09:33:01;39.15;;;20.20;;
40122;SDS011;25832;45.490;4.912;2022-12-13T09:35:27;46.35;;;20.20;;
40122;SDS011;25832;45.490;4.912;2022-12-13T09:37:53;39.10;;;20.48;;
40122;SDS011;25832;45.490;4.912;2022-12-13T09:40:21;39.17;;;18.20;;
40122;SDS011;25832;45.490;4.912;2022-12-13T09:42:50;36.85;;;19.50;;
40122;SDS011;25832;45.490;4.912;2022-12-13T09:45:19;40.70;;;20.13;;
40122;SDS011;25832;45.490;4.912;2022-12-13T09:47:46;45.95;;;21.90;;
40122;SDS011;25832;45.490;4.912;2022-12-13T09:50:14;41.58;;;19.48;;
40122;SDS011;25832;45.490;4.912;2022-12-13T09:52:43;39.45;;;18.83;;
40122;SDS011;25832;45.490;4.912;2022-12-13T09:55:52;37.45;;;19.75;;
40122;SDS011;25832;45.490;4.912;2022-12-13T09:58:13;40.05;;;18.77;;
40122;SDS011;25832;45.490;4.912;2022-12-13T10:00:45;36.42;;;18.95;;
40122;SDS011;25832;45.490;4.912;2022-12-13T10:03:13;35.85;;;16.75;;
40122;SDS011;25832;45.490;4.912;2022-12-13T10:05:41;33.17;;;17.00;;
40122;SDS011;25832;45.490;4.912;2022-12-13T10:08:17;31.08;;;15.98;;
40122;SDS011;25832;45.490;4.912;2022-12-13T10:10:47;29.55;;;15.40;;
40122;SDS011;25832;45.490;4.912;2022-12-13T10:13:23;28.25;;;14.77;;
40122;SDS011;25832;45.490;4.912;2022-12-13T10:18:51;30.00;;;13.75;;
40122;SDS011;25832;45.490;4.912;2022-12-13T10:21:39;30.63;;;15.80;;
40122;SDS011;25832;45.490;4.912;2022-12-13T10:24:13;33.17;;;16.92;;
40122;SDS011;25832;45.490;4.912;2022-12-13T10:26:39;29.98;;;16.10;;
40122;SDS011;25832;45.490;4.912;2022-12-13T10:29:05;29.90;;;14.98;;
40122;SDS011;25832;45.490;4.912;2022-12-13T10:31:43;29.27;;;14.80;;
40122;SDS011;25832;45.490;4.912;2022-12-13T10:34:29;30.88;;;15.20;;
40122;SDS011;25832;45.490;4.912;2022-12-13T10:37:19;31.73;;;17.05;;
40122;SDS011;25832;45.490;4.912;2022-12-13T10:39:56;30.85;;;16.33;;
40122;SDS011;25832;45.490;4.912;2022-12-13T10:42:22;25.80;;;13.43;;
40122;SDS011;25832;45.490;4.912;2022-12-13T10:45:01;25.02;;;13.35;;
40122;SDS011;25832;45.490;4.912;2022-12-13T10:47:43;32.45;;;16.10;;
40122;SDS011;25832;45.490;4.912;2022-12-13T10:50:20;33.10;;;17.50;;
40122;SDS011;25832;45.490;4.912;2022-12-13T10:52:51;35.33;;;18.85;;
40122;SDS011;25832;45.490;4.912;2022-12-13T10:58:06;35.47;;;18.80;;
40122;SDS011;25832;45.490;4.912;2022-12-13T11:00:44;36.85;;;18.50;;
40122;SDS011;25832;45.490;4.912;2022-12-13T11:03:27;41.38;;;20.50;;
40122;SDS011;25832;45.490;4.912;2022-12-13T11:06:14;40.83;;;19.55;;
40122;SDS011;25832;45.490;4.912;2022-12-13T11:08:43;36.72;;;19.60;;
40122;SDS011;25832;45.490;4.912;2022-12-13T11:11:09;44.70;;;20.48;;
40122;SDS011;25832;45.490;4.912;2022-12-13T11:16:19;37.57;;;19.50;;
40122;SDS011;25832;45.490;4.912;2022-12-13T11:18:55;38.88;;;19.45;;
40122;SDS011;25832;45.490;4.912;2022-12-13T11:21:28;43.10;;;19.92;;
40122;SDS011;25832;45.490;4.912;2022-12-13T11:23:57;41.33;;;20.15;;
40122;SDS011;25832;45.490;4.912;2022-12-13T11:26:30;41.83;;;19.40;;
40122;SDS011;25832;45.490;4.912;2022-12-13T11:36:58;44.13;;;20.48;;
40122;SDS011;25832;45.490;4.912;2022-12-13T11:39:34;40.13;;;19.70;;
40122;SDS011;25832;45.490;4.912;2022-12-13T11:44:39;44.53;;;22.38;;
40122;SDS011;25832;45.490;4.912;2022-12-13T11:47:20;43.55;;;22.23;;
40122;SDS011;25832;45.490;4.912;2022-12-13T11:49:50;43.28;;;19.58;;
40122;SDS011;25832;45.490;4.912;2022-12-13T11:52:26;49.80;;;22.95;;
40122;SDS011;25832;45.490;4.912;2022-12-13T11:55:15;48.78;;;22.77;;
40122;SDS011;25832;45.490;4.912;2022-12-13T11:57:51;46.67;;;23.33;;
40122;SDS011;25832;45.490;4.912;2022-12-13T12:00:36;51.70;;;24.45;;
40122;SDS011;25832;45.490;4.912;2022-12-13T12:06:03;42.63;;;20.83;;
40122;SDS011;25832;45.490;4.912;2022-12-13T12:08:41;49.10;;;23.40;;
40122;SDS011;25832;45.490;4.912;2022-12-13T12:11:14;51.08;;;23.05;;
40122;SDS011;25832;45.490;4.912;2022-12-13T12:14:32;46.35;;;23.67;;
40122;SDS011;25832;45.490;4.912;2022-12-13T12:16:56;46.33;;;22.10;;
40122;SDS011;25832;45.490;4.912;2022-12-13T12:19:23;45.75;;;21.58;;
40122;SDS011;25832;45.490;4.912;2022-12-13T12:41:29;46.53;;;21.27;;
40122;SDS011;25832;45.490;4.912;2022-12-13T12:44:04;41.05;;;21.30;;
40122;SDS011;25832;45.490;4.912;2022-12-13T12:50:16;36.58;;;18.67;;
40122;SDS011;25832;45.490;4.912;2022-12-13T12:55:49;29.25;;;15.98;;
40122;SDS011;25832;45.490;4.912;2022-12-13T13:04:09;27.48;;;13.68;;
40122;SDS011;25832;45.490;4.912;2022-12-13T13:06:49;23.77;;;12.82;;
40122;SDS011;25832;45.490;4.912;2022-12-13T13:09:19;25.27;;;13.68;;
40122;SDS011;25832;45.490;4.912;2022-12-13T13:11:46;26.75;;;12.85;;
40122;SDS011;25832;45.490;4.912;2022-12-13T13:16:59;26.40;;;14.07;;
40122;SDS011;25832;45.490;4.912;2022-12-13T13:20:10;24.92;;;13.30;;
40122;SDS011;25832;45.490;4.912;2022-12-13T13:22:36;23.45;;;12.88;;
40122;SDS011;25832;45.490;4.912;2022-12-13T13:27:32;28.85;;;14.63;;
40122;SDS011;25832;45.490;4.912;2022-12-13T13:32:46;31.15;;;15.65;;
40122;SDS011;25832;45.490;4.912;2022-12-13T13:38:25;31.88;;;16.13;;
40122;SDS011;25832;45.490;4.912;2022-12-13T13:40:48;30.25;;;15.45;;
40122;SDS011;25832;45.490;4.912;2022-12-13T13:43:15;28.13;;;15.45;;
40122;SDS011;25832;45.490;4.912;2022-12-13T13:56:44;53.47;;;24.98;;
40122;SDS011;25832;45.490;4.912;2022-12-13T14:21:52;118.53;;;34.42;;
40122;SDS011;25832;45.490;4.912;2022-12-13T14:29:51;71.75;;;31.42;;
40122;SDS011;25832;45.490;4.912;2022-12-13T14:32:27;78.55;;;35.20;;
40122;SDS011;25832;45.490;4.912;2022-12-13T14:34:55;61.22;;;29.38;;
40122;SDS011;25832;45.490;4.912;2022-12-13T14:37:30;63.78;;;30.98;;
40122;SDS011;25832;45.490;4.912;2022-12-13T14:39:58;35.90;;;17.80;;
40122;SDS011;25832;45.490;4.912;2022-12-13T14:42:26;18.45;;;10.10;;
40122;SDS011;25832;45.490;4.912;2022-12-13T14:45:20;19.88;;;8.73;;
40122;SDS011;25832;45.490;4.912;2022-12-13T14:47:52;12.88;;;7.20;;
40122;SDS011;25832;45.490;4.912;2022-12-13T14:50:18;13.35;;;7.70;;
40122;SDS011;25832;45.490;4.912;2022-12-13T14:52:45;13.10;;;8.07;;
40122;SDS011;25832;45.490;4.912;2022-12-13T14:55:23;13.60;;;7.50;;
40122;SDS011;25832;45.490;4.912;2022-12-13T14:58:00;19.17;;;10.80;;
40122;SDS011;25832;45.490;4.912;2022-12-13T15:00:33;17.98;;;9.75;;
40122;SDS011;25832;45.490;4.912;2022-12-13T15:03:02;12.32;;;6.25;;
40122;SDS011;25832;45.490;4.912;2022-12-13T15:05:36;13.82;;;6.70;;
40122;SDS011;25832;45.490;4.912;2022-12-13T15:08:08;10.77;;;5.30;;
40122;SDS011;25832;45.490;4.912;2022-12-13T15:33:28;10.82;;;5.13;;
40122;SDS011;25832;45.490;4.912;2022-12-13T15:36:00;7.85;;;4.70;;
40122;SDS011;25832;45.490;4.912;2022-12-13T15:38:29;9.73;;;6.55;;
40122;SDS011;25832;45.490;4.912;2022-12-13T15:40:55;10.10;;;5.68;;
40122;SDS011;25832;45.490;4.912;2022-12-13T15:43:30;9.93;;;5.95;;
40122;SDS011;25832;45.490;4.912;2022-12-13T15:45:59;8.57;;;5.07;;
40122;SDS011;25832;45.490;4.912;2022-12-13T15:48:32;11.98;;;7.45;;
40122;SDS011;25832;45.490;4.912;2022-12-13T15:53:33;9.27;;;5.32;;
40122;SDS011;25832;45.490;4.912;2022-12-13T15:55:59;9.40;;;5.28;;
40122;SDS011;25832;45.490;4.912;2022-12-13T16:00:54;19.05;;;11.95;;
40122;SDS011;25832;45.490;4.912;2022-12-13T16:03:23;19.38;;;11.90;;
40122;SDS011;25832;45.490;4.912;2022-12-13T16:05:53;24.73;;;13.95;;
40122;SDS011;25832;45.490;4.912;2022-12-13T16:08:32;16.65;;;8.32;;
40122;SDS011;25832;45.490;4.912;2022-12-13T16:11:02;16.30;;;8.80;;
40122;SDS011;25832;45.490;4.912;2022-12-13T16:13:30;23.70;;;11.15;;
40122;SDS011;25832;45.490;4.912;2022-12-13T16:16:22;13.45;;;7.88;;
40122;SDS011;25832;45.490;4.912;2022-12-13T16:18:52;14.05;;;10.20;;
40122;SDS011;25832;45.490;4.912;2022-12-13T16:21:22;9.00;;;6.20;;
40122;SDS011;25832;45.490;4.912;2022-12-13T16:23:49;8.70;;;5.85;;
40122;SDS011;25832;45.490;4.912;2022-12-13T16:26:22;9.23;;;6.13;;
40122;SDS011;25832;45.490;4.912;2022-12-13T16:28:53;9.70;;;5.93;;
40122;SDS011;25832;45.490;4.912;2022-12-13T16:31:21;7.13;;;5.28;;
40122;SDS011;25832;45.490;4.912;2022-12-13T16:33:49;7.32;;;3.92;;
40122;SDS011;25832;45.490;4.912;2022-12-13T16:36:15;7.53;;;4.53;;
40122;SDS011;25832;45.490;4.912;2022-12-13T16:38:41;8.43;;;4.97;;
40122;SDS011;25832;45.490;4.912;2022-12-13T16:41:07;7.88;;;5.07;;
40122;SDS011;25832;45.490;4.912;2022-12-13T16:43:33;8.65;;;4.68;;
40122;SDS011;25832;45.490;4.912;2022-12-13T16:46:04;8.20;;;4.93;;
40122;SDS011;25832;45.490;4.912;2022-12-13T16:48:30;7.80;;;5.85;;
40122;SDS011;25832;45.490;4.912;2022-12-13T16:50:56;7.22;;;4.78;;
40122;SDS011;25832;45.490;4.912;2022-12-13T16:53:21;7.28;;;4.10;;
40122;SDS011;25832;45.490;4.912;2022-12-13T16:55:48;8.18;;;4.60;;
40122;SDS011;25832;45.490;4.912;2022-12-13T16:58:15;8.13;;;4.05;;
40122;SDS011;25832;45.490;4.912;2022-12-13T17:00:42;6.47;;;3.85;;
40122;SDS011;25832;45.490;4.912;2022-12-13T17:03:09;6.72;;;3.55;;
40122;SDS011;25832;45.490;4.912;2022-12-13T17:05:36;7.05;;;3.83;;
40122;SDS011;25832;45.490;4.912;2022-12-13T17:08:04;6.45;;;3.55;;
40122;SDS011;25832;45.490;4.912;2022-12-13T17:10:29;5.28;;;3.00;;
40122;SDS011;25832;45.490;4.912;2022-12-13T17:12:55;8.35;;;4.50;;